sensor_id;sensor_type;location;lat;lon;timestamp;pressure;altitude;pressure_sealevel;temperature;humidity
59654;BME280;66556;52.008;5.432;2023-01-26T00:02:43;102545.0;;;9.81;53.0
59654;BME280;66556;52.008;5.432;2023-01-26T00:05:56;102545.0;;;9.47;53.49
59654;BME280;66556;52.008;5.432;2023-01-26T00:07:32;102545.0;;;10.02;52.12
59654;BME280;66556;52.008;5.432;2023-01-26T00:09:11;102538.00000000001;;;9.98;52.7
59654;BME280;66556;52.008;5.432;2023-01-26T00:12:26;102530.0;;;9.96;52.18
59654;BME280;66556;52.008;5.432;2023-01-26T00:14:03;102530.0;;;10.44;51.68
59654;BME280;66556;52.008;5.432;2023-01-26T00:15:39;102532.0;;;11.05;49.28
59654;BME280;66556;52.008;5.432;2023-01-26T00:19:01;102532.0;;;11.13;49.09
59654;BME280;66556;52.008;5.432;2023-01-26T00:20:37;102527.0;;;11.4;48.5
59654;BME280;66556;52.008;5.432;2023-01-26T00:22:13;102527.0;;;10.78;49.67
59654;BME280;66556;52.008;5.432;2023-01-26T00:23:50;102524.0;;;10.21;51.38
59654;BME280;66556;52.008;5.432;2023-01-26T00:27:03;102521.0;;;10.68;50.17
59654;BME280;66556;52.008;5.432;2023-01-26T00:28:39;102521.0;;;10.38;50.56
59654;BME280;66556;52.008;5.432;2023-01-26T00:30:16;102520.0;;;10.43;51.16
59654;BME280;66556;52.008;5.432;2023-01-26T00:33:29;102521.0;;;11.08;49.08
59654;BME280;66556;52.008;5.432;2023-01-26T00:35:05;102520.0;;;10.93;49.5
59654;BME280;66556;52.008;5.432;2023-01-26T00:36:42;102527.0;;;10.8;49.65
59654;BME280;66556;52.008;5.432;2023-01-26T00:39:54;102519.0;;;11.01;49.28
59654;BME280;66556;52.008;5.432;2023-01-26T00:42:35;102517.0;;;10.06;51.58
59654;BME280;66556;52.008;5.432;2023-01-26T00:44:11;102514.00000000001;;;10.15;51.4
59654;BME280;66556;52.008;5.432;2023-01-26T00:45:47;102514.00000000001;;;10.65;49.98
59654;BME280;66556;52.008;5.432;2023-01-26T00:47:24;102509.99999999999;;;10.89;49.07
59654;BME280;66556;52.008;5.432;2023-01-26T00:49:00;102513.00000000001;;;9.98;51.02
59654;BME280;66556;52.008;5.432;2023-01-26T00:52:12;102511.99999999999;;;10.52;50.79
59654;BME280;66556;52.008;5.432;2023-01-26T00:53:49;102517.0;;;10.59;49.84
59654;BME280;66556;52.008;5.432;2023-01-26T00:55:31;102507.0;;;10.63;49.39
59654;BME280;66556;52.008;5.432;2023-01-26T00:57:08;102511.99999999999;;;10.39;49.9
59654;BME280;66556;52.008;5.432;2023-01-26T01:00:21;102508.99999999999;;;10.88;48.84
59654;BME280;66556;52.008;5.432;2023-01-26T01:01:57;102511.99999999999;;;10.61;49.78
59654;BME280;66556;52.008;5.432;2023-01-26T01:03:34;102508.99999999999;;;10.26;50.6
59654;BME280;66556;52.008;5.432;2023-01-26T01:06:47;102519.0;;;10.69;49.44
59654;BME280;66556;52.008;5.432;2023-01-26T01:08:23;102508.0;;;10.8;48.44
59654;BME280;66556;52.008;5.432;2023-01-26T01:09:59;102508.0;;;10.22;50.21
59654;BME280;66556;52.008;5.432;2023-01-26T01:13:12;102498.0;;;10.48;49.39
59654;BME280;66556;52.008;5.432;2023-01-26T01:14:48;102504.0;;;10.55;49.82
59654;BME280;66556;52.008;5.432;2023-01-26T01:16:24;102500.0;;;10.95;48.2
59654;BME280;66556;52.008;5.432;2023-01-26T01:19:37;102503.0;;;10.94;49.02
59654;BME280;66556;52.008;5.432;2023-01-26T01:21:16;102498.0;;;11.08;48.17
59654;BME280;66556;52.008;5.432;2023-01-26T01:22:52;102502.0;;;9.39;51.96
59654;BME280;66556;52.008;5.432;2023-01-26T01:24:28;102500.0;;;10.02;51.25
59654;BME280;66556;52.008;5.432;2023-01-26T01:27:42;102497.0;;;10.47;49.92
59654;BME280;66556;52.008;5.432;2023-01-26T01:29:19;102495.0;;;10.53;50.63
59654;BME280;66556;52.008;5.432;2023-01-26T01:30:55;102496.0;;;10.26;50.37
59654;BME280;66556;52.008;5.432;2023-01-26T01:34:09;102495.0;;;10.98;48.88
59654;BME280;66556;52.008;5.432;2023-01-26T01:35:55;102497.0;;;10.45;50.52
59654;BME280;66556;52.008;5.432;2023-01-26T01:37:32;102496.0;;;10.84;49.61
59654;BME280;66556;52.008;5.432;2023-01-26T01:39:09;102497.0;;;10.36;50.54
59654;BME280;66556;52.008;5.432;2023-01-26T01:42:23;102492.0;;;10.91;49.16
59654;BME280;66556;52.008;5.432;2023-01-26T01:44:17;102488.00000000001;;;11.33;48.31
59654;BME280;66556;52.008;5.432;2023-01-26T01:45:55;102491.00000000001;;;11.03;48.84
59654;BME280;66556;52.008;5.432;2023-01-26T01:47:33;102492.0;;;10.58;49.74
59654;BME280;66556;52.008;5.432;2023-01-26T01:50:56;102497.0;;;10.29;50.8
59654;BME280;66556;52.008;5.432;2023-01-26T01:52:36;102493.0;;;10.86;49.65
59654;BME280;66556;52.008;5.432;2023-01-26T01:54:16;102484.99999999999;;;11.36;48.0
59654;BME280;66556;52.008;5.432;2023-01-26T01:55:56;102484.99999999999;;;10.99;48.9
59654;BME280;66556;52.008;5.432;2023-01-26T01:59:27;102488.00000000001;;;10.66;49.2
59654;BME280;66556;52.008;5.432;2023-01-26T02:01:06;102488.00000000001;;;10.61;49.87
59654;BME280;66556;52.008;5.432;2023-01-26T02:02:44;102478.0;;;10.62;50.16
59654;BME280;66556;52.008;5.432;2023-01-26T02:04:24;102478.0;;;10.91;49.03
59654;BME280;66556;52.008;5.432;2023-01-26T02:07:44;102467.0;;;11.42;48.1
59654;BME280;66556;52.008;5.432;2023-01-26T02:10:25;102471.0;;;10.45;50.42
59654;BME280;66556;52.008;5.432;2023-01-26T02:12:05;102466.00000000001;;;10.37;50.31
59654;BME280;66556;52.008;5.432;2023-01-26T02:13:46;102467.0;;;10.52;50.07
59654;BME280;66556;52.008;5.432;2023-01-26T02:15:23;102466.00000000001;;;10.57;49.97
59654;BME280;66556;52.008;5.432;2023-01-26T02:16:59;102469.0;;;10.28;50.25
59654;BME280;66556;52.008;5.432;2023-01-26T02:20:18;102467.0;;;10.53;49.84
59654;BME280;66556;52.008;5.432;2023-01-26T02:22:01;102458.99999999999;;;11.27;48.33
59654;BME280;66556;52.008;5.432;2023-01-26T02:23:51;102458.0;;;11.26;48.09
59654;BME280;66556;52.008;5.432;2023-01-26T02:25:39;102458.99999999999;;;11.03;49.45
59654;BME280;66556;52.008;5.432;2023-01-26T02:27:22;102468.0;;;10.81;49.3
59654;BME280;66556;52.008;5.432;2023-01-26T02:30:36;102464.00000000001;;;10.85;49.74
59654;BME280;66556;52.008;5.432;2023-01-26T02:32:13;102458.99999999999;;;11.51;48.02
59654;BME280;66556;52.008;5.432;2023-01-26T02:33:50;102463.00000000001;;;10.97;48.99
59654;BME280;66556;52.008;5.432;2023-01-26T02:37:02;102458.99999999999;;;11.47;47.73
59654;BME280;66556;52.008;5.432;2023-01-26T02:38:40;102452.0;;;11.34;48.4
59654;BME280;66556;52.008;5.432;2023-01-26T02:40:25;102463.00000000001;;;11.27;48.44
59654;BME280;66556;52.008;5.432;2023-01-26T02:42:43;102470.0;;;10.7;49.44
59654;BME280;66556;52.008;5.432;2023-01-26T02:44:20;102467.0;;;10.95;49.05
59654;BME280;66556;52.008;5.432;2023-01-26T02:45:57;102468.0;;;11.05;49.02
59654;BME280;66556;52.008;5.432;2023-01-26T02:50:13;102461.99999999999;;;11.39;48.19
59654;BME280;66556;52.008;5.432;2023-01-26T02:51:50;102464.00000000001;;;11.24;48.01
59654;BME280;66556;52.008;5.432;2023-01-26T02:53:27;102461.99999999999;;;11.35;48.12
59654;BME280;66556;52.008;5.432;2023-01-26T02:55:36;102465.00000000001;;;11.49;47.56
59654;BME280;66556;52.008;5.432;2023-01-26T02:57:12;102469.0;;;10.95;49.14
59654;BME280;66556;52.008;5.432;2023-01-26T02:58:49;102469.0;;;10.8;49.17
59654;BME280;66556;52.008;5.432;2023-01-26T03:02:04;102469.0;;;11.95;46.7
59654;BME280;66556;52.008;5.432;2023-01-26T03:03:41;102467.0;;;11.43;47.76
59654;BME280;66556;52.008;5.432;2023-01-26T03:05:18;102463.00000000001;;;11.44;48.55
59654;BME280;66556;52.008;5.432;2023-01-26T03:06:54;102471.0;;;11.57;48.22
59654;BME280;66556;52.008;5.432;2023-01-26T03:10:08;102464.00000000001;;;11.78;47.22
59654;BME280;66556;52.008;5.432;2023-01-26T03:11:45;102463.00000000001;;;11.82;47.36
59654;BME280;66556;52.008;5.432;2023-01-26T03:13:21;102471.0;;;11.25;48.09
59654;BME280;66556;52.008;5.432;2023-01-26T03:17:44;102469.0;;;11.48;48.55
59654;BME280;66556;52.008;5.432;2023-01-26T03:27:32;102476.0;;;11.12;49.63
59654;BME280;66556;52.008;5.432;2023-01-26T03:29:12;102473.0;;;11.53;48.87
59654;BME280;66556;52.008;5.432;2023-01-26T03:30:50;102474.0;;;11.69;47.74
59654;BME280;66556;52.008;5.432;2023-01-26T03:32:27;102476.0;;;11.93;47.33
59654;BME280;66556;52.008;5.432;2023-01-26T03:34:03;102470.0;;;11.98;47.67
59654;BME280;66556;52.008;5.432;2023-01-26T03:37:21;102472.0;;;11.08;48.82
59654;BME280;66556;52.008;5.432;2023-01-26T03:38:57;102471.0;;;11.38;48.91
59654;BME280;66556;52.008;5.432;2023-01-26T03:56:34;102464.00000000001;;;11.58;48.03
59654;BME280;66556;52.008;5.432;2023-01-26T03:58:11;102458.99999999999;;;11.47;48.59
59654;BME280;66556;52.008;5.432;2023-01-26T03:59:46;102455.0;;;11.58;48.35
59654;BME280;66556;52.008;5.432;2023-01-26T04:01:25;102456.0;;;11.29;49.2
59654;BME280;66556;52.008;5.432;2023-01-26T04:08:29;102461.99999999999;;;11.33;49.3
59654;BME280;66556;52.008;5.432;2023-01-26T04:10:07;102459.99999999999;;;11.13;50.14
59654;BME280;66556;52.008;5.432;2023-01-26T04:11:43;102454.0;;;11.12;49.94
59654;BME280;66556;52.008;5.432;2023-01-26T04:21:29;102457.0;;;11.74;48.53
59654;BME280;66556;52.008;5.432;2023-01-26T04:23:06;102461.99999999999;;;11.6;49.08
59654;BME280;66556;52.008;5.432;2023-01-26T04:24:42;102463.00000000001;;;11.92;47.99
59654;BME280;66556;52.008;5.432;2023-01-26T04:27:54;102459.99999999999;;;11.66;48.52
59654;BME280;66556;52.008;5.432;2023-01-26T04:29:31;102459.99999999999;;;11.68;48.17
59654;BME280;66556;52.008;5.432;2023-01-26T04:31:07;102457.0;;;11.79;48.41
59654;BME280;66556;52.008;5.432;2023-01-26T04:32:45;102463.00000000001;;;11.71;48.43
59654;BME280;66556;52.008;5.432;2023-01-26T04:36:02;102467.0;;;11.87;48.57
59654;BME280;66556;52.008;5.432;2023-01-26T04:37:39;102464.00000000001;;;11.68;48.32
59654;BME280;66556;52.008;5.432;2023-01-26T04:39:15;102457.0;;;11.67;48.62
59654;BME280;66556;52.008;5.432;2023-01-26T04:42:28;102466.00000000001;;;11.61;48.65
59654;BME280;66556;52.008;5.432;2023-01-26T04:44:05;102458.0;;;11.95;48.09
59654;BME280;66556;52.008;5.432;2023-01-26T04:45:41;102463.00000000001;;;11.68;48.48
59654;BME280;66556;52.008;5.432;2023-01-26T04:47:17;102454.0;;;12.07;47.42
59654;BME280;66556;52.008;5.432;2023-01-26T04:50:30;102449.0;;;11.79;48.27
59654;BME280;66556;52.008;5.432;2023-01-26T04:52:07;102452.0;;;12.13;47.45
59654;BME280;66556;52.008;5.432;2023-01-26T04:53:43;102456.0;;;12.19;47.07
59654;BME280;66556;52.008;5.432;2023-01-26T04:56:55;102454.0;;;12.09;47.46
59654;BME280;66556;52.008;5.432;2023-01-26T04:58:31;102451.0;;;12.26;47.23
59654;BME280;66556;52.008;5.432;2023-01-26T05:00:11;102456.0;;;11.66;48.62
59654;BME280;66556;52.008;5.432;2023-01-26T05:03:25;102452.0;;;11.87;48.23
59654;BME280;66556;52.008;5.432;2023-01-26T05:05:02;102450.0;;;11.62;48.76
59654;BME280;66556;52.008;5.432;2023-01-26T05:06:41;102442.0;;;11.93;48.58
59654;BME280;66556;52.008;5.432;2023-01-26T05:08:18;102447.0;;;12.06;47.25
59654;BME280;66556;52.008;5.432;2023-01-26T05:11:32;102444.0;;;11.78;48.15
59654;BME280;66556;52.008;5.432;2023-01-26T05:13:09;102443.0;;;11.56;49.05
59654;BME280;66556;52.008;5.432;2023-01-26T05:14:46;102438.00000000001;;;11.53;49.26
59654;BME280;66556;52.008;5.432;2023-01-26T05:17:59;102439.00000000001;;;11.78;48.52
59654;BME280;66556;52.008;5.432;2023-01-26T05:19:36;102434.99999999999;;;11.95;48.15
59654;BME280;66556;52.008;5.432;2023-01-26T05:21:13;102434.99999999999;;;11.35;49.48
59654;BME280;66556;52.008;5.432;2023-01-26T05:22:48;102438.00000000001;;;11.26;50.17
59654;BME280;66556;52.008;5.432;2023-01-26T05:26:01;102439.00000000001;;;11.35;50.05
59654;BME280;66556;52.008;5.432;2023-01-26T05:27:38;102433.0;;;11.42;49.85
59654;BME280;66556;52.008;5.432;2023-01-26T05:29:14;102433.99999999999;;;11.68;49.91
59654;BME280;66556;52.008;5.432;2023-01-26T05:32:27;102430.0;;;11.99;48.45
59654;BME280;66556;52.008;5.432;2023-01-26T05:34:04;102432.0;;;11.62;48.91
59654;BME280;66556;52.008;5.432;2023-01-26T05:35:41;102433.99999999999;;;11.64;49.29
59654;BME280;66556;52.008;5.432;2023-01-26T05:38:53;102441.00000000001;;;11.87;48.74
59654;BME280;66556;52.008;5.432;2023-01-26T05:40:29;102436.99999999999;;;11.72;49.17
59654;BME280;66556;52.008;5.432;2023-01-26T05:42:05;102439.00000000001;;;11.45;49.58
59654;BME280;66556;52.008;5.432;2023-01-26T05:45:18;102436.99999999999;;;11.32;50.43
59654;BME280;66556;52.008;5.432;2023-01-26T05:46:55;102432.0;;;11.35;50.46
59654;BME280;66556;52.008;5.432;2023-01-26T05:48:32;102436.99999999999;;;11.57;50.27
59654;BME280;66556;52.008;5.432;2023-01-26T05:50:09;102436.99999999999;;;11.43;50.12
59654;BME280;66556;52.008;5.432;2023-01-26T05:53:22;102441.00000000001;;;11.55;49.86
59654;BME280;66556;52.008;5.432;2023-01-26T05:55:00;102440.00000000001;;;11.49;50.07
59654;BME280;66556;52.008;5.432;2023-01-26T05:56:36;102439.00000000001;;;11.35;50.54
59654;BME280;66556;52.008;5.432;2023-01-26T05:59:50;102439.00000000001;;;11.72;49.88
59654;BME280;66556;52.008;5.432;2023-01-26T06:01:26;102442.0;;;11.71;49.4
59654;BME280;66556;52.008;5.432;2023-01-26T06:03:03;102446.0;;;11.81;49.37
59654;BME280;66556;52.008;5.432;2023-01-26T06:04:39;102449.0;;;12.42;47.94
59654;BME280;66556;52.008;5.432;2023-01-26T06:07:52;102447.0;;;12.55;47.47
59654;BME280;66556;52.008;5.432;2023-01-26T06:09:28;102451.0;;;12.56;46.97
59654;BME280;66556;52.008;5.432;2023-01-26T06:11:04;102453.0;;;11.98;48.02
59654;BME280;66556;52.008;5.432;2023-01-26T06:14:18;102456.0;;;11.66;49.44
59654;BME280;66556;52.008;5.432;2023-01-26T06:15:54;102463.00000000001;;;11.62;49.5
59654;BME280;66556;52.008;5.432;2023-01-26T06:17:30;102461.99999999999;;;11.86;49.28
59654;BME280;66556;52.008;5.432;2023-01-26T06:20:45;102458.99999999999;;;11.8;49.34
59654;BME280;66556;52.008;5.432;2023-01-26T06:22:21;102458.99999999999;;;11.72;49.3
59654;BME280;66556;52.008;5.432;2023-01-26T06:23:57;102467.0;;;11.54;49.89
59654;BME280;66556;52.008;5.432;2023-01-26T06:25:34;102466.00000000001;;;11.92;49.01
59654;BME280;66556;52.008;5.432;2023-01-26T06:28:49;102459.99999999999;;;11.32;50.78
59654;BME280;66556;52.008;5.432;2023-01-26T06:30:26;102456.0;;;11.49;50.13
59654;BME280;66556;52.008;5.432;2023-01-26T06:32:03;102457.0;;;11.38;50.71
59654;BME280;66556;52.008;5.432;2023-01-26T06:35:15;102465.00000000001;;;11.44;50.56
59654;BME280;66556;52.008;5.432;2023-01-26T06:36:51;102470.0;;;11.4;50.6
59654;BME280;66556;52.008;5.432;2023-01-26T06:38:28;102467.0;;;11.49;50.36
59654;BME280;66556;52.008;5.432;2023-01-26T06:43:19;102467.0;;;11.0;51.93
59654;BME280;66556;52.008;5.432;2023-01-26T06:44:57;102469.0;;;11.47;50.84
59654;BME280;66556;52.008;5.432;2023-01-26T06:46:34;102475.0;;;11.4;50.8
59654;BME280;66556;52.008;5.432;2023-01-26T06:49:46;102475.0;;;11.05;51.74
59654;BME280;66556;52.008;5.432;2023-01-26T06:51:41;102478.0;;;11.5;50.65
59654;BME280;66556;52.008;5.432;2023-01-26T06:53:33;102477.0;;;11.61;50.02
59654;BME280;66556;52.008;5.432;2023-01-26T06:55:16;102476.0;;;11.78;50.09
59654;BME280;66556;52.008;5.432;2023-01-26T06:58:30;102474.0;;;11.79;49.68
59654;BME280;66556;52.008;5.432;2023-01-26T07:00:08;102480.0;;;11.46;50.48
59654;BME280;66556;52.008;5.432;2023-01-26T07:01:47;102481.0;;;11.37;51.0
59654;BME280;66556;52.008;5.432;2023-01-26T07:03:24;102486.99999999999;;;11.46;51.05
59654;BME280;66556;52.008;5.432;2023-01-26T07:06:37;102481.0;;;11.42;51.01
59654;BME280;66556;52.008;5.432;2023-01-26T07:08:13;102483.0;;;11.46;50.94
59654;BME280;66556;52.008;5.432;2023-01-26T07:09:49;102483.0;;;11.63;50.59
59654;BME280;66556;52.008;5.432;2023-01-26T07:13:02;102483.99999999999;;;11.72;50.16
59654;BME280;66556;52.008;5.432;2023-01-26T07:14:39;102483.99999999999;;;11.7;50.22
59654;BME280;66556;52.008;5.432;2023-01-26T07:16:16;102489.00000000001;;;11.57;50.68
59654;BME280;66556;52.008;5.432;2023-01-26T07:17:55;102486.99999999999;;;11.48;50.95
59654;BME280;66556;52.008;5.432;2023-01-26T07:21:10;102486.99999999999;;;11.57;51.04
59654;BME280;66556;52.008;5.432;2023-01-26T07:22:49;102478.0;;;11.59;50.62
59654;BME280;66556;52.008;5.432;2023-01-26T07:24:26;102477.0;;;11.55;50.95
59654;BME280;66556;52.008;5.432;2023-01-26T07:27:40;102480.0;;;11.51;51.15
59654;BME280;66556;52.008;5.432;2023-01-26T07:30:56;102486.99999999999;;;11.78;50.35
59654;BME280;66556;52.008;5.432;2023-01-26T07:32:33;102490.00000000001;;;11.74;50.11
59654;BME280;66556;52.008;5.432;2023-01-26T07:35:46;102499.0;;;11.86;50.14
59654;BME280;66556;52.008;5.432;2023-01-26T07:37:26;102504.0;;;11.86;50.0
59654;BME280;66556;52.008;5.432;2023-01-26T07:39:02;102500.0;;;11.6;50.87
59654;BME280;66556;52.008;5.432;2023-01-26T07:42:16;102500.0;;;11.41;51.27
59654;BME280;66556;52.008;5.432;2023-01-26T07:43:52;102503.0;;;11.75;50.6
59654;BME280;66556;52.008;5.432;2023-01-26T07:45:28;102504.0;;;11.72;50.67
59654;BME280;66556;52.008;5.432;2023-01-26T07:48:40;102505.0;;;11.58;51.04
59654;BME280;66556;52.008;5.432;2023-01-26T07:50:17;102502.0;;;11.7;51.28
59654;BME280;66556;52.008;5.432;2023-01-26T07:51:54;102508.99999999999;;;11.6;50.97
59654;BME280;66556;52.008;5.432;2023-01-26T07:53:30;102519.0;;;11.9;50.34
59654;BME280;66556;52.008;5.432;2023-01-26T07:56:43;102516.00000000001;;;11.66;50.91
59654;BME280;66556;52.008;5.432;2023-01-26T07:58:20;102519.0;;;11.51;51.54
59654;BME280;66556;52.008;5.432;2023-01-26T07:59:56;102521.0;;;11.75;50.79
59654;BME280;66556;52.008;5.432;2023-01-26T08:03:09;102517.0;;;11.71;50.88
59654;BME280;66556;52.008;5.432;2023-01-26T08:04:45;102517.0;;;11.5;51.55
59654;BME280;66556;52.008;5.432;2023-01-26T08:06:22;102519.0;;;11.88;50.97
59654;BME280;66556;52.008;5.432;2023-01-26T08:09:36;102519.0;;;11.77;50.97
59654;BME280;66556;52.008;5.432;2023-01-26T08:11:13;102517.0;;;11.61;51.57
59654;BME280;66556;52.008;5.432;2023-01-26T08:12:49;102513.00000000001;;;11.85;51.02
59654;BME280;66556;52.008;5.432;2023-01-26T08:14:25;102514.00000000001;;;11.76;51.28
59654;BME280;66556;52.008;5.432;2023-01-26T08:17:40;102513.00000000001;;;11.84;51.24
59654;BME280;66556;52.008;5.432;2023-01-26T08:19:16;102511.99999999999;;;11.85;50.93
59654;BME280;66556;52.008;5.432;2023-01-26T08:20:53;102516.00000000001;;;11.88;51.11
59654;BME280;66556;52.008;5.432;2023-01-26T08:24:07;102519.0;;;12.07;50.61
59654;BME280;66556;52.008;5.432;2023-01-26T08:25:46;102520.0;;;12.18;50.04
59654;BME280;66556;52.008;5.432;2023-01-26T08:27:23;102521.0;;;12.29;49.58
59654;BME280;66556;52.008;5.432;2023-01-26T08:28:59;102523.0;;;12.84;48.64
59654;BME280;66556;52.008;5.432;2023-01-26T08:32:13;102524.0;;;12.85;48.23
59654;BME280;66556;52.008;5.432;2023-01-26T08:33:51;102522.0;;;12.63;49.14
59654;BME280;66556;52.008;5.432;2023-01-26T08:35:27;102525.0;;;12.52;49.25
59654;BME280;66556;52.008;5.432;2023-01-26T08:38:41;102523.0;;;12.42;49.92
59654;BME280;66556;52.008;5.432;2023-01-26T08:40:19;102521.0;;;11.87;51.11
59654;BME280;66556;52.008;5.432;2023-01-26T08:41:55;102515.00000000001;;;12.4;50.3
59654;BME280;66556;52.008;5.432;2023-01-26T08:45:09;102519.0;;;12.22;50.81
59654;BME280;66556;52.008;5.432;2023-01-26T08:46:46;102516.00000000001;;;12.13;51.35
59654;BME280;66556;52.008;5.432;2023-01-26T08:48:22;102519.0;;;12.67;49.91
59654;BME280;66556;52.008;5.432;2023-01-26T08:49:58;102525.0;;;12.7;49.91
59654;BME280;66556;52.008;5.432;2023-01-26T08:53:11;102529.0;;;12.56;50.63
59654;BME280;66556;52.008;5.432;2023-01-26T08:54:48;102538.00000000001;;;12.4;50.98
59654;BME280;66556;52.008;5.432;2023-01-26T08:56:24;102538.00000000001;;;12.27;51.75
59654;BME280;66556;52.008;5.432;2023-01-26T08:59:38;102533.99999999999;;;12.57;51.02
59654;BME280;66556;52.008;5.432;2023-01-26T09:01:15;102536.99999999999;;;12.53;51.26
59654;BME280;66556;52.008;5.432;2023-01-26T09:02:57;102533.99999999999;;;12.91;50.32
59654;BME280;66556;52.008;5.432;2023-01-26T09:04:34;102538.00000000001;;;13.28;49.71
59654;BME280;66556;52.008;5.432;2023-01-26T09:07:48;102541.00000000001;;;13.7;48.71
59654;BME280;66556;52.008;5.432;2023-01-26T09:09:25;102542.0;;;13.53;48.66
59654;BME280;66556;52.008;5.432;2023-01-26T09:11:01;102542.0;;;13.69;48.67
59654;BME280;66556;52.008;5.432;2023-01-26T09:14:16;102541.00000000001;;;13.88;47.86
59654;BME280;66556;52.008;5.432;2023-01-26T09:15:53;102541.00000000001;;;14.11;47.66
59654;BME280;66556;52.008;5.432;2023-01-26T09:17:30;102539.00000000001;;;13.64;48.88
59654;BME280;66556;52.008;5.432;2023-01-26T09:20:42;102541.00000000001;;;13.88;48.45
59654;BME280;66556;52.008;5.432;2023-01-26T09:22:19;102542.0;;;14.01;49.32
59654;BME280;66556;52.008;5.432;2023-01-26T09:23:55;102544.0;;;14.46;48.62
59654;BME280;66556;52.008;5.432;2023-01-26T09:25:35;102543.0;;;14.34;48.61
59654;BME280;66556;52.008;5.432;2023-01-26T09:28:49;102551.0;;;14.73;48.11
59654;BME280;66556;52.008;5.432;2023-01-26T09:30:26;102553.0;;;14.76;47.69
59654;BME280;66556;52.008;5.432;2023-01-26T09:32:02;102551.0;;;13.99;49.78
59654;BME280;66556;52.008;5.432;2023-01-26T09:35:14;102552.0;;;14.45;49.0
59654;BME280;66556;52.008;5.432;2023-01-26T09:36:51;102554.0;;;14.62;49.02
59654;BME280;66556;52.008;5.432;2023-01-26T09:38:27;102550.0;;;14.18;49.64
59654;BME280;66556;52.008;5.432;2023-01-26T09:41:50;102549.0;;;14.67;49.78
59654;BME280;66556;52.008;5.432;2023-01-26T09:43:41;102550.0;;;14.98;48.93
59654;BME280;66556;52.008;5.432;2023-01-26T09:45:26;102546.0;;;15.47;47.98
59654;BME280;66556;52.008;5.432;2023-01-26T09:47:12;102550.0;;;15.14;49.05
59654;BME280;66556;52.008;5.432;2023-01-26T09:49:02;102552.0;;;15.26;48.9
59654;BME280;66556;52.008;5.432;2023-01-26T09:50:44;102550.0;;;15.3;48.64
59654;BME280;66556;52.008;5.432;2023-01-26T09:54:17;102552.0;;;15.15;49.15
59654;BME280;66556;52.008;5.432;2023-01-26T09:56:11;102550.0;;;15.22;49.03
59654;BME280;66556;52.008;5.432;2023-01-26T09:57:54;102551.0;;;15.25;49.32
59654;BME280;66556;52.008;5.432;2023-01-26T09:59:40;102552.0;;;15.44;48.92
59654;BME280;66556;52.008;5.432;2023-01-26T10:01:25;102556.0;;;15.58;48.94
59654;BME280;66556;52.008;5.432;2023-01-26T10:04:57;102559.99999999999;;;15.6;48.93
59654;BME280;66556;52.008;5.432;2023-01-26T10:06:37;102565.00000000001;;;15.77;48.54
59654;BME280;66556;52.008;5.432;2023-01-26T10:08:17;102555.0;;;15.87;48.57
59654;BME280;66556;52.008;5.432;2023-01-26T10:09:55;102565.00000000001;;;15.68;49.02
59654;BME280;66556;52.008;5.432;2023-01-26T10:11:35;102568.0;;;15.63;49.12
59654;BME280;66556;52.008;5.432;2023-01-26T10:14:57;102566.00000000001;;;15.47;49.57
59654;BME280;66556;52.008;5.432;2023-01-26T10:16:36;102561.99999999999;;;15.84;49.74
59654;BME280;66556;52.008;5.432;2023-01-26T10:18:16;102557.0;;;15.85;50.07
59654;BME280;66556;52.008;5.432;2023-01-26T10:20:00;102561.99999999999;;;16.45;49.1
59654;BME280;66556;52.008;5.432;2023-01-26T10:23:26;102558.0;;;16.37;48.84
59654;BME280;66556;52.008;5.432;2023-01-26T10:25:12;102555.0;;;16.68;48.8
59654;BME280;66556;52.008;5.432;2023-01-26T10:26:52;102557.0;;;16.61;48.95
59654;BME280;66556;52.008;5.432;2023-01-26T10:28:34;102551.0;;;16.65;49.64
59654;BME280;66556;52.008;5.432;2023-01-26T10:31:49;102546.0;;;17.06;48.74
59654;BME280;66556;52.008;5.432;2023-01-26T10:33:29;102545.0;;;16.81;49.57
59654;BME280;66556;52.008;5.432;2023-01-26T10:35:15;102550.0;;;16.75;51.24
59654;BME280;66556;52.008;5.432;2023-01-26T10:36:57;102550.0;;;16.7;51.88
59654;BME280;66556;52.008;5.432;2023-01-26T10:38:51;102554.0;;;17.22;50.68
59654;BME280;66556;52.008;5.432;2023-01-26T10:42:04;102553.0;;;17.5;50.59
59654;BME280;66556;52.008;5.432;2023-01-26T10:43:41;102553.0;;;17.71;51.28
59654;BME280;66556;52.008;5.432;2023-01-26T10:45:28;102543.0;;;18.09;51.37
59654;BME280;66556;52.008;5.432;2023-01-26T10:47:14;102546.0;;;18.07;51.68
59654;BME280;66556;52.008;5.432;2023-01-26T10:50:33;102550.0;;;18.75;51.2
59654;BME280;66556;52.008;5.432;2023-01-26T10:52:15;102546.0;;;18.75;50.2
59654;BME280;66556;52.008;5.432;2023-01-26T10:54:27;102550.0;;;19.57;49.72
59654;BME280;66556;52.008;5.432;2023-01-26T10:56:05;102548.0;;;19.75;48.76
59654;BME280;66556;52.008;5.432;2023-01-26T10:57:46;102546.0;;;20.25;47.98
59654;BME280;66556;52.008;5.432;2023-01-26T11:01:11;102544.0;;;20.25;46.93
59654;BME280;66556;52.008;5.432;2023-01-26T11:02:50;102549.0;;;20.45;47.53
59654;BME280;66556;52.008;5.432;2023-01-26T11:04:29;102555.0;;;20.38;44.35
59654;BME280;66556;52.008;5.432;2023-01-26T11:06:10;102553.0;;;21.11;44.93
59654;BME280;66556;52.008;5.432;2023-01-26T11:09:29;102555.0;;;20.89;45.27
59654;BME280;66556;52.008;5.432;2023-01-26T11:11:22;102556.0;;;21.0;46.19
59654;BME280;66556;52.008;5.432;2023-01-26T11:13:16;102558.0;;;20.89;43.86
59654;BME280;66556;52.008;5.432;2023-01-26T11:14:59;102558.99999999999;;;20.78;42.02
59654;BME280;66556;52.008;5.432;2023-01-26T11:16:44;102563.00000000001;;;21.19;42.97